Time;durP1;ratioP1;P1;durP2;ratioP2;P2;SDS_P1;SDS_P2;PMS_P1;PMS_P2;Temp;Humidity;BMP_temperature;BMP_pressure;BME280_temperature;BME280_humidity;BME280_pressure;Samples;Min_cycle;Max_cycle;Signal;HPM_P1;HPM_P2
2022/03/17 00:02:23;;;;;;;1.62;1.52;;;;;;;;;;1834798;78;26772;-40
2022/03/17 00:04:52;;;;;;;1.82;1.72;;;;;;;;;;1799599;79;26977;-40
2022/03/17 00:07:20;;;;;;;1.90;1.80;;;;;;;;;;1832536;78;26268;-40
2022/03/17 00:09:48;;;;;;;1.70;1.70;;;;;;;;;;1839635;78;26402;-40
2022/03/17 00:12:15;;;;;;;1.60;1.60;;;;;;;;;;1811616;78;26331;-41
2022/03/17 00:14:42;;;;;;;6.08;1.62;;;;;;;;;;1804288;79;26448;-40
2022/03/17 00:17:10;;;;;;;1.47;1.47;;;;;;;;;;1794121;79;26498;-40
2022/03/17 00:19:37;;;;;;;1.37;1.37;;;;;;;;;;1803124;78;26302;-40
2022/03/17 00:22:06;;;;;;;1.82;1.65;;;;;;;;;;1780187;80;26369;-41
2022/03/17 00:24:33;;;;;;;1.70;1.60;;;;;;;;;;1786143;79;26350;-40
2022/03/17 00:27:01;;;;;;;1.45;1.45;;;;;;;;;;1796429;78;26265;-40
2022/03/17 00:29:29;;;;;;;1.60;1.50;;;;;;;;;;1816424;78;26439;-41
2022/03/17 00:31:56;;;;;;;1.70;1.60;;;;;;;;;;1839698;78;26268;-41
2022/03/17 00:34:23;;;;;;;1.30;1.30;;;;;;;;;;1839184;78;26281;-40
2022/03/17 00:36:51;;;;;;;2.05;1.45;;;;;;;;;;1839524;78;26281;-40
2022/03/17 00:39:18;;;;;;;1.60;1.60;;;;;;;;;;1840230;78;26393;-40
2022/03/17 00:41:45;;;;;;;1.50;1.50;;;;;;;;;;1821255;78;26352;-40
2022/03/17 00:44:14;;;;;;;1.60;1.60;;;;;;;;;;1781747;79;26742;-40
2022/03/17 00:46:41;;;;;;;1.55;1.50;;;;;;;;;;1798918;79;26321;-39
2022/03/17 00:49:12;;;;;;;1.77;1.67;;;;;;;;;;1798365;79;26326;-39
2022/03/17 00:51:38;;;;;;;1.40;1.40;;;;;;;;;;1793824;79;26347;-39
2022/03/17 00:54:05;;;;;;;1.30;1.30;;;;;;;;;;1819079;78;26310;-39
2022/03/17 00:56:32;;;;;;;2.80;1.50;;;;;;;;;;1810637;78;26299;-40
2022/03/17 00:59:00;;;;;;;1.57;1.47;;;;;;;;;;1799880;79;26354;-41
2022/03/17 01:01:27;;;;;;;1.40;1.40;;;;;;;;;;1792798;78;26836;-39
2022/03/17 01:03:54;;;;;;;1.40;1.40;;;;;;;;;;1788779;79;26754;-39
2022/03/17 01:06:21;;;;;;;1.67;1.40;;;;;;;;;;1815566;78;26212;-39
2022/03/17 01:08:49;;;;;;;1.30;1.30;;;;;;;;;;1804957;79;26325;-39
2022/03/17 01:11:16;;;;;;;1.32;1.32;;;;;;;;;;1789853;78;26349;-40
2022/03/17 01:13:43;;;;;;;1.50;1.50;;;;;;;;;;1779687;80;26282;-39
2022/03/17 01:16:10;;;;;;;1.35;1.35;;;;;;;;;;1790253;79;26220;-40
2022/03/17 01:18:38;;;;;;;1.50;1.50;;;;;;;;;;1805720;78;26246;-39
2022/03/17 01:21:06;;;;;;;1.30;1.30;;;;;;;;;;1797035;79;26860;-39
2022/03/17 01:23:34;;;;;;;1.42;1.40;;;;;;;;;;1800698;78;26358;-40
2022/03/17 01:26:01;;;;;;;1.55;1.50;;;;;;;;;;1816515;78;26280;-39
2022/03/17 01:28:29;;;;;;;1.35;1.35;;;;;;;;;;1810862;79;26684;-39
2022/03/17 01:30:56;;;;;;;1.50;1.50;;;;;;;;;;1830418;77;26302;-41
2022/03/17 01:33:23;;;;;;;1.57;1.47;;;;;;;;;;1792994;79;26337;-39
2022/03/17 01:35:50;;;;;;;1.35;1.35;;;;;;;;;;1788133;80;26294;-40
2022/03/17 01:38:18;;;;;;;1.25;1.25;;;;;;;;;;1806417;78;26353;-40
2022/03/17 01:40:45;;;;;;;1.27;1.27;;;;;;;;;;1792259;79;26324;-39
2022/03/17 01:43:12;;;;;;;1.40;1.40;;;;;;;;;;1788247;80;26357;-39
2022/03/17 01:45:39;;;;;;;1.40;1.40;;;;;;;;;;1787900;80;26702;-39
2022/03/17 01:48:07;;;;;;;1.50;1.40;;;;;;;;;;1788151;80;26291;-40
2022/03/17 01:50:34;;;;;;;1.45;1.45;;;;;;;;;;1788134;80;26855;-39
2022/03/17 01:53:01;;;;;;;1.42;1.32;;;;;;;;;;1788016;80;27421;-39
2022/03/17 01:55:30;;;;;;;1.50;1.40;;;;;;;;;;1786579;79;26816;-39
2022/03/17 01:57:58;;;;;;;1.30;1.30;;;;;;;;;;1771301;81;26654;-40
2022/03/17 02:00:25;;;;;;;1.32;1.22;;;;;;;;;;1788236;77;26252;-40
2022/03/17 02:02:52;;;;;;;1.52;1.42;;;;;;;;;;1847861;77;26829;-39
2022/03/17 02:05:20;;;;;;;1.45;1.40;;;;;;;;;;1837809;77;26286;-40
2022/03/17 02:07:54;;;;;;;1.30;1.30;;;;;;;;;;1811942;77;26696;-41
2022/03/17 02:10:22;;;;;;;1.40;1.40;;;;;;;;;;1800532;79;26860;-39
2022/03/17 02:15:35;;;;;;;1.40;1.40;;;;;;;;;;1792227;79;26283;-39
2022/03/17 02:18:06;;;;;;;1.25;1.25;;;;;;;;;;1816103;79;26338;-39
2022/03/17 02:20:33;;;;;;;1.07;1.07;;;;;;;;;;1816162;79;26299;-39
2022/03/17 02:25:56;;;;;;;1.50;1.40;;;;;;;;;;1792111;78;26353;-39
2022/03/17 02:28:25;;;;;;;1.32;1.32;;;;;;;;;;1818483;79;26271;-39
2022/03/17 02:30:54;;;;;;;1.40;1.32;;;;;;;;;;1825924;78;26398;-39
2022/03/17 02:33:21;;;;;;;1.30;1.30;;;;;;;;;;1832293;78;26358;-38
2022/03/17 02:35:49;;;;;;;1.40;1.30;;;;;;;;;;1806533;79;26936;-39
2022/03/17 02:38:17;;;;;;;1.30;1.30;;;;;;;;;;1819414;79;26783;-39
2022/03/17 02:40:45;;;;;;;1.20;1.20;;;;;;;;;;1807135;79;26341;-39
2022/03/17 02:43:14;;;;;;;1.22;1.22;;;;;;;;;;1778829;79;26790;-39
2022/03/17 02:45:43;;;;;;;1.55;1.45;;;;;;;;;;1800724;78;27180;-40
2022/03/17 02:48:10;;;;;;;1.20;1.20;;;;;;;;;;1818077;78;26328;-40
2022/03/17 02:50:38;;;;;;;1.22;1.22;;;;;;;;;;1802155;79;26314;-40
2022/03/17 02:53:07;;;;;;;1.30;1.30;;;;;;;;;;1800165;79;27489;-40
2022/03/17 02:55:35;;;;;;;1.40;1.40;;;;;;;;;;1801240;79;26909;-40
2022/03/17 02:58:04;;;;;;;1.17;1.17;;;;;;;;;;1803469;78;26263;-41
2022/03/17 03:00:32;;;;;;;1.40;1.30;;;;;;;;;;1808758;79;26302;-44
2022/03/17 03:02:59;;;;;;;1.40;1.40;;;;;;;;;;1809109;79;26344;-40
2022/03/17 03:05:28;;;;;;;1.30;1.30;;;;;;;;;;1809520;78;26766;-40
2022/03/17 03:07:56;;;;;;;1.40;1.30;;;;;;;;;;1810213;79;26965;-39
2022/03/17 03:10:23;;;;;;;1.30;1.30;;;;;;;;;;1808565;78;26264;-39
2022/03/17 03:12:50;;;;;;;1.20;1.20;;;;;;;;;;1783377;78;26282;-39
2022/03/17 03:15:18;;;;;;;1.50;1.50;;;;;;;;;;1777444;79;26352;-39
2022/03/17 03:17:45;;;;;;;3.10;1.80;;;;;;;;;;1803944;79;26781;-39
2022/03/17 03:20:12;;;;;;;1.50;1.50;;;;;;;;;;1800351;79;26282;-42
2022/03/17 03:22:40;;;;;;;1.40;1.30;;;;;;;;;;1804034;78;26325;-38
2022/03/17 03:25:08;;;;;;;1.25;1.25;;;;;;;;;;1809947;79;26259;-39
2022/03/17 03:27:39;;;;;;;1.30;1.30;;;;;;;;;;1806366;78;26763;-39
2022/03/17 03:30:05;;;;;;;1.20;1.20;;;;;;;;;;1814796;78;26396;-40
2022/03/17 03:32:33;;;;;;;1.30;1.30;;;;;;;;;;1791774;79;26776;-39
2022/03/17 03:37:22;;;;;;;1.50;1.40;;;;;;;;;;1818894;77;26282;-40
2022/03/17 03:37:29;;;;;;;1.32;1.32;;;;;;;;;;1790110;80;26765;-40
2022/03/17 03:39:57;;;;;;;1.25;1.25;;;;;;;;;;1756237;82;26311;-40
2022/03/17 03:42:26;;;;;;;1.25;1.25;;;;;;;;;;1756336;82;26307;-39
2022/03/17 03:44:53;;;;;;;1.32;1.32;;;;;;;;;;1755880;81;26373;-40
2022/03/17 03:47:21;;;;;;;1.40;1.30;;;;;;;;;;1766085;81;26854;-39
2022/03/17 03:49:51;;;;;;;1.30;1.30;;;;;;;;;;1774506;81;26837;-40
2022/03/17 03:52:19;;;;;;;1.37;1.37;;;;;;;;;;1803769;79;26352;-41
2022/03/17 03:54:46;;;;;;;1.50;1.50;;;;;;;;;;1769769;79;26298;-39
2022/03/17 03:57:14;;;;;;;1.22;1.22;;;;;;;;;;1757868;80;26421;-39
2022/03/17 03:59:42;;;;;;;1.37;1.37;;;;;;;;;;1768663;81;26767;-39
2022/03/17 04:02:10;;;;;;;1.52;1.20;;;;;;;;;;1784037;80;26396;-41
2022/03/17 04:04:42;;;;;;;1.55;1.45;;;;;;;;;;1803959;79;26380;-39
2022/03/17 04:07:11;;;;;;;1.25;1.25;;;;;;;;;;1814123;79;26309;-39
2022/03/17 04:09:40;;;;;;;1.30;1.30;;;;;;;;;;1813905;79;26325;-39
2022/03/17 04:12:09;;;;;;;1.30;1.30;;;;;;;;;;1781898;79;26279;-39
2022/03/17 04:14:36;;;;;;;1.40;1.40;;;;;;;;;;1772731;79;26353;-40
2022/03/17 04:17:04;;;;;;;1.50;1.50;;;;;;;;;;1807109;79;26299;-39
2022/03/17 04:19:32;;;;;;;1.40;1.40;;;;;;;;;;1814054;79;26678;-40
2022/03/17 04:21:59;;;;;;;1.30;1.30;;;;;;;;;;1805177;79;26268;-39
2022/03/17 04:24:26;;;;;;;1.37;1.37;;;;;;;;;;1780608;79;26298;-39
2022/03/17 04:26:54;;;;;;;1.42;1.32;;;;;;;;;;1770241;79;26284;-40
2022/03/17 04:29:21;;;;;;;1.50;1.40;;;;;;;;;;1773999;80;26301;-38
2022/03/17 04:31:49;;;;;;;1.40;1.40;;;;;;;;;;1805357;79;26334;-39
2022/03/17 04:34:16;;;;;;;1.52;1.30;;;;;;;;;;1807956;79;26838;-39
2022/03/17 04:36:44;;;;;;;1.40;1.40;;;;;;;;;;1769838;79;26333;-40
2022/03/17 04:39:11;;;;;;;1.25;1.25;;;;;;;;;;1762269;81;26333;-40
2022/03/17 04:41:39;;;;;;;1.37;1.37;;;;;;;;;;1759133;80;26261;-40
2022/03/17 04:44:07;;;;;;;1.57;1.57;;;;;;;;;;1750333;82;26332;-40
2022/03/17 04:46:34;;;;;;;1.40;1.40;;;;;;;;;;1784925;80;26888;-40
2022/03/17 04:49:02;;;;;;;1.35;1.35;;;;;;;;;;1843728;77;26287;-41
2022/03/17 04:51:31;;;;;;;1.40;1.40;;;;;;;;;;1848178;77;26267;-40
2022/03/17 04:53:58;;;;;;;1.40;1.40;;;;;;;;;;1828126;77;26310;-40
2022/03/17 04:56:26;;;;;;;1.40;1.40;;;;;;;;;;1815946;79;26328;-39
2022/03/17 04:58:53;;;;;;;1.30;1.30;;;;;;;;;;1815647;79;27318;-40
2022/03/17 05:01:21;;;;;;;1.40;1.40;;;;;;;;;;1796980;78;26356;-40
2022/03/17 05:03:48;;;;;;;1.40;1.40;;;;;;;;;;1784428;80;26945;-41
2022/03/17 05:06:16;;;;;;;1.47;1.47;;;;;;;;;;1827863;78;26641;-40
2022/03/17 05:08:43;;;;;;;1.27;1.27;;;;;;;;;;1844420;78;26376;-41
2022/03/17 05:11:13;;;;;;;1.40;1.40;;;;;;;;;;1843971;77;26897;-40
2022/03/17 05:13:42;;;;;;;1.42;1.40;;;;;;;;;;1847873;77;26301;-40
2022/03/17 05:16:10;;;;;;;1.40;1.40;;;;;;;;;;1830229;77;26334;-40
2022/03/17 05:18:38;;;;;;;2.80;1.40;;;;;;;;;;1812320;79;26299;-40
2022/03/17 05:21:06;;;;;;;1.62;1.52;;;;;;;;;;1812464;79;26325;-41
2022/03/17 05:23:34;;;;;;;1.42;1.42;;;;;;;;;;1806472;77;26301;-40
2022/03/17 05:26:03;;;;;;;1.42;1.42;;;;;;;;;;1847302;77;26564;-42
2022/03/17 05:28:30;;;;;;;1.70;1.60;;;;;;;;;;1819594;78;26337;-40
2022/03/17 05:30:58;;;;;;;1.40;1.40;;;;;;;;;;1802292;78;26742;-40
2022/03/17 05:33:25;;;;;;;1.30;1.30;;;;;;;;;;1784301;78;26860;-40
2022/03/17 05:35:52;;;;;;;1.40;1.40;;;;;;;;;;1786649;78;26842;-41
2022/03/17 05:38:20;;;;;;;1.37;1.37;;;;;;;;;;1776955;81;26343;-41
2022/03/17 05:40:47;;;;;;;1.60;1.60;;;;;;;;;;1776367;81;26318;-40
2022/03/17 05:43:15;;;;;;;1.60;1.50;;;;;;;;;;1776397;80;26774;-39
2022/03/17 05:45:43;;;;;;;2.75;1.50;;;;;;;;;;1776279;81;26270;-40
2022/03/17 05:48:10;;;;;;;2.17;1.50;;;;;;;;;;1798311;78;26400;-40
2022/03/17 05:50:39;;;;;;;1.52;1.42;;;;;;;;;;1809753;79;26306;-42
2022/03/17 05:53:08;;;;;;;1.52;1.47;;;;;;;;;;1807078;79;26235;-40
2022/03/17 05:55:35;;;;;;;1.72;1.62;;;;;;;;;;1799018;80;26295;-41
2022/03/17 05:58:02;;;;;;;1.87;1.55;;;;;;;;;;1798948;79;26296;-42
2022/03/17 06:00:30;;;;;;;2.52;1.60;;;;;;;;;;1802249;78;26291;-40
2022/03/17 06:02:58;;;;;;;5.83;1.70;;;;;;;;;;1805445;79;26300;-40
2022/03/17 06:05:26;;;;;;;2.10;1.65;;;;;;;;;;1809607;78;26803;-38
2022/03/17 06:07:54;;;;;;;1.90;1.60;;;;;;;;;;1836902;78;26272;-40
2022/03/17 06:10:23;;;;;;;6.62;2.10;;;;;;;;;;1836882;78;26492;-39
2022/03/17 06:12:52;;;;;;;2.77;1.70;;;;;;;;;;1820717;78;27621;-39
2022/03/17 06:15:20;;;;;;;2.00;1.85;;;;;;;;;;1840355;78;26227;-40
2022/03/17 06:17:51;;;;;;;2.98;1.90;;;;;;;;;;1805091;79;26264;-39
2022/03/17 06:20:20;;;;;;;2.40;1.60;;;;;;;;;;1804495;79;26217;-41
2022/03/17 06:22:49;;;;;;;1.72;1.62;;;;;;;;;;1804091;79;26652;-40
2022/03/17 06:25:17;;;;;;;3.35;1.52;;;;;;;;;;1823811;78;26598;-39
2022/03/17 06:27:45;;;;;;;3.60;2.00;;;;;;;;;;1809722;78;26303;-39
2022/03/17 06:30:14;;;;;;;3.30;1.80;;;;;;;;;;1816763;79;26310;-39
2022/03/17 06:32:42;;;;;;;1.70;1.60;;;;;;;;;;1811037;79;26329;-41
2022/03/17 06:35:17;;;;;;;2.15;1.70;;;;;;;;;;1820154;77;26756;-38
2022/03/17 06:37:46;;;;;;;2.05;1.95;;;;;;;;;;1820272;78;26858;-40
2022/03/17 06:40:14;;;;;;;1.67;1.65;;;;;;;;;;1820599;79;26244;-40
2022/03/17 06:42:42;;;;;;;1.77;1.67;;;;;;;;;;1811591;77;26246;-39
2022/03/17 06:45:10;;;;;;;1.80;1.70;;;;;;;;;;1822919;78;26790;-39
2022/03/17 06:47:38;;;;;;;1.98;1.87;;;;;;;;;;1820666;78;26255;-39
2022/03/17 06:50:06;;;;;;;1.82;1.70;;;;;;;;;;1828819;78;26225;-40
2022/03/17 06:52:33;;;;;;;1.87;1.77;;;;;;;;;;1822128;78;25653;-39
2022/03/17 06:55:01;;;;;;;1.90;1.80;;;;;;;;;;1822286;77;26392;-40
2022/03/17 06:57:28;;;;;;;2.02;1.90;;;;;;;;;;1819952;78;26311;-39
2022/03/17 06:59:55;;;;;;;1.70;1.70;;;;;;;;;;1820036;77;26282;-40
2022/03/17 07:02:23;;;;;;;1.87;1.77;;;;;;;;;;1850234;77;27595;-39
2022/03/17 07:04:50;;;;;;;1.80;1.70;;;;;;;;;;1845517;77;26965;-40
2022/03/17 07:07:17;;;;;;;2.25;1.72;;;;;;;;;;1829331;77;26794;-39
2022/03/17 07:09:44;;;;;;;2.50;1.80;;;;;;;;;;1850718;77;26262;-41
2022/03/17 07:12:12;;;;;;;1.80;1.70;;;;;;;;;;1821015;77;26309;-40
2022/03/17 07:14:39;;;;;;;1.47;1.47;;;;;;;;;;1790034;80;26277;-41
2022/03/17 07:17:07;;;;;;;1.50;1.50;;;;;;;;;;1837302;77;26278;-40
2022/03/17 07:19:34;;;;;;;1.87;1.77;;;;;;;;;;1831027;77;26293;-40
2022/03/17 07:22:02;;;;;;;1.52;1.52;;;;;;;;;;1814116;79;26340;-40
2022/03/17 07:24:30;;;;;;;1.70;1.60;;;;;;;;;;1792759;77;26286;-40
2022/03/17 07:27:02;;;;;;;1.72;1.62;;;;;;;;;;1816545;77;26272;-39
2022/03/17 07:29:32;;;;;;;1.70;1.60;;;;;;;;;;1828455;77;26688;-39
2022/03/17 07:31:56;;;;;;;1.72;1.50;;;;;;;;;;1845939;77;26298;-39
2022/03/17 07:34:24;;;;;;;1.40;1.40;;;;;;;;;;1848640;77;26754;-41
2022/03/17 07:36:52;;;;;;;2.40;1.60;;;;;;;;;;1848048;77;27505;-39
2022/03/17 07:39:20;;;;;;;1.80;1.70;;;;;;;;;;1812328;77;26381;-41
2022/03/17 07:41:47;;;;;;;3.15;1.50;;;;;;;;;;1805127;77;26778;-42
2022/03/17 07:44:14;;;;;;;2.22;1.52;;;;;;;;;;1848033;77;26322;-39
2022/03/17 07:46:42;;;;;;;1.70;1.70;;;;;;;;;;1801382;77;26277;-42
2022/03/17 07:49:09;;;;;;;1.75;1.65;;;;;;;;;;1778843;80;26333;-40
2022/03/17 07:51:37;;;;;;;1.85;1.75;;;;;;;;;;1779030;80;26270;-40
2022/03/17 07:54:05;;;;;;;1.57;1.57;;;;;;;;;;1796549;77;26368;-41
2022/03/17 07:56:33;;;;;;;1.47;1.47;;;;;;;;;;1787789;79;27597;-42
2022/03/17 07:59:00;;;;;;;1.77;1.67;;;;;;;;;;1786754;79;27194;-40
2022/03/17 08:01:27;;;;;;;2.02;1.92;;;;;;;;;;1790982;77;26282;-41
2022/03/17 08:03:55;;;;;;;2.00;1.87;;;;;;;;;;1824655;78;26362;-39
2022/03/17 08:06:23;;;;;;;1.87;1.77;;;;;;;;;;1839959;77;27465;-39
2022/03/17 08:08:50;;;;;;;1.85;1.75;;;;;;;;;;1847762;77;26275;-39
2022/03/17 08:11:17;;;;;;;2.02;1.92;;;;;;;;;;1831258;77;26334;-39
2022/03/17 08:13:45;;;;;;;3.62;1.75;;;;;;;;;;1784584;80;26356;-38
2022/03/17 08:16:12;;;;;;;1.65;1.62;;;;;;;;;;1809031;78;26349;-39
2022/03/17 08:18:39;;;;;;;1.90;1.87;;;;;;;;;;1836937;77;26329;-39
2022/03/17 08:21:08;;;;;;;2.05;1.95;;;;;;;;;;1814651;78;26793;-40
2022/03/17 08:23:35;;;;;;;2.00;1.90;;;;;;;;;;1813931;79;26937;-40
2022/03/17 08:26:02;;;;;;;2.05;1.95;;;;;;;;;;1805934;78;26793;-39
2022/03/17 08:28:30;;;;;;;2.20;2.10;;;;;;;;;;1814214;79;26287;-40
2022/03/17 08:30:57;;;;;;;2.27;2.17;;;;;;;;;;1830563;77;26754;-39
2022/03/17 08:33:24;;;;;;;1.75;1.75;;;;;;;;;;1846415;77;26358;-40
2022/03/17 08:35:52;;;;;;;2.27;2.15;;;;;;;;;;1818217;77;26383;-39
2022/03/17 08:38:20;;;;;;;1.90;1.80;;;;;;;;;;1805632;79;26887;-41
2022/03/17 08:40:48;;;;;;;1.95;1.85;;;;;;;;;;1810024;79;26319;-41
2022/03/17 08:43:15;;;;;;;2.08;1.98;;;;;;;;;;1812813;78;26813;-40
2022/03/17 08:51:13;;;;;;;2.10;2.00;;;;;;;;;;1787807;78;26289;-39
2022/03/17 08:53:40;;;;;;;2.00;1.90;;;;;;;;;;1800251;79;26329;-40
2022/03/17 08:56:08;;;;;;;1.98;1.87;;;;;;;;;;1806824;78;26790;-39
2022/03/17 08:58:36;;;;;;;1.82;1.82;;;;;;;;;;1779875;78;26682;-39
2022/03/17 09:01:03;;;;;;;1.82;1.72;;;;;;;;;;1814929;78;26925;-39
2022/03/17 09:03:32;;;;;;;1.90;1.80;;;;;;;;;;1808198;78;26331;-39
2022/03/17 09:06:00;;;;;;;1.70;1.70;;;;;;;;;;1817604;78;26870;-39
2022/03/17 09:08:28;;;;;;;1.67;1.65;;;;;;;;;;1834544;78;26734;-41
2022/03/17 09:10:56;;;;;;;1.75;1.75;;;;;;;;;;1805933;79;26236;-39
2022/03/17 09:13:28;;;;;;;1.60;1.60;;;;;;;;;;1777259;79;26286;-39
2022/03/17 09:15:56;;;;;;;1.72;1.70;;;;;;;;;;1784521;79;26288;-39
2022/03/17 09:18:23;;;;;;;1.70;1.70;;;;;;;;;;1803910;79;26229;-39
2022/03/17 09:20:50;;;;;;;1.82;1.72;;;;;;;;;;1804994;78;26361;-39
2022/03/17 09:23:18;;;;;;;1.70;1.70;;;;;;;;;;1805380;79;26765;-39
2022/03/17 09:25:46;;;;;;;1.57;1.57;;;;;;;;;;1789504;78;26294;-39
2022/03/17 09:28:14;;;;;;;1.80;1.70;;;;;;;;;;1787680;79;26266;-39
2022/03/17 09:30:42;;;;;;;1.50;1.50;;;;;;;;;;1804706;78;26361;-39
2022/03/17 09:33:09;;;;;;;1.55;1.55;;;;;;;;;;1840210;78;26350;-39
2022/03/17 09:35:37;;;;;;;1.85;1.77;;;;;;;;;;1837464;77;26383;-41
2022/03/17 09:38:06;;;;;;;1.47;1.47;;;;;;;;;;1836974;78;26289;-39
2022/03/17 09:40:34;;;;;;;1.70;1.60;;;;;;;;;;1837100;78;26327;-39
2022/03/17 09:43:28;;;;;;;1.60;1.60;;;;;;;;;;1809042;78;26289;-40
2022/03/17 09:45:50;;;;;;;1.47;1.47;;;;;;;;;;1828518;78;26432;-39
2022/03/17 09:48:19;;;;;;;1.50;1.50;;;;;;;;;;1833722;78;26329;-39
2022/03/17 09:50:47;;;;;;;1.90;1.80;;;;;;;;;;1833697;78;26300;-40
2022/03/17 09:53:15;;;;;;;1.50;1.50;;;;;;;;;;1823140;78;26245;-40
2022/03/17 09:55:43;;;;;;;1.52;1.52;;;;;;;;;;1800218;80;26250;-44
2022/03/17 09:58:11;;;;;;;1.70;1.70;;;;;;;;;;1806646;78;26355;-41
2022/03/17 10:00:53;;;;;;;1.60;1.50;;;;;;;;;;1794597;79;26817;-41
2022/03/17 10:03:28;;;;;;;1.57;1.57;;;;;;;;;;1774536;80;26905;-41
2022/03/17 10:05:57;;;;;;;1.70;1.60;;;;;;;;;;1791406;79;26332;-40
2022/03/17 10:08:25;;;;;;;1.57;1.55;;;;;;;;;;1803898;79;26313;-40
2022/03/17 10:10:52;;;;;;;1.70;1.60;;;;;;;;;;1828389;78;26351;-40
2022/03/17 10:13:21;;;;;;;1.77;1.67;;;;;;;;;;1776851;78;26327;-41
2022/03/17 10:15:50;;;;;;;2.05;1.52;;;;;;;;;;1789579;78;26287;-41
2022/03/17 10:18:23;;;;;;;1.80;1.70;;;;;;;;;;1833360;77;26318;-40
2022/03/17 10:20:52;;;;;;;1.30;1.30;;;;;;;;;;1833687;78;26318;-40
2022/03/17 10:23:21;;;;;;;1.52;1.52;;;;;;;;;;1833003;78;26309;-41
2022/03/17 10:25:51;;;;;;;1.57;1.52;;;;;;;;;;1831219;78;26301;-42
2022/03/17 10:28:18;;;;;;;1.77;1.70;;;;;;;;;;1803819;78;26317;-42
2022/03/17 10:30:45;;;;;;;1.60;1.50;;;;;;;;;;1786925;79;26296;-43
2022/03/17 10:33:15;;;;;;;1.62;1.62;;;;;;;;;;1790392;79;26265;-44
2022/03/17 10:35:46;;;;;;;1.82;1.72;;;;;;;;;;1826644;78;27250;-40
2022/03/17 10:38:13;;;;;;;1.42;1.40;;;;;;;;;;1839428;78;26355;-44
2022/03/17 10:40:41;;;;;;;1.40;1.40;;;;;;;;;;1834566;78;26350;-41
2022/03/17 10:43:19;;;;;;;1.80;1.70;;;;;;;;;;1826505;78;26284;-43
2022/03/17 10:45:47;;;;;;;1.70;1.60;;;;;;;;;;1832422;78;26361;-42
2022/03/17 10:48:14;;;;;;;1.65;1.55;;;;;;;;;;1807951;79;26260;-40
2022/03/17 10:50:43;;;;;;;2.30;1.60;;;;;;;;;;1798437;78;26377;-42
2022/03/17 10:53:11;;;;;;;1.30;1.30;;;;;;;;;;1802251;78;25692;-40
2022/03/17 10:55:39;;;;;;;1.47;1.47;;;;;;;;;;1797299;79;26305;-40
2022/03/17 10:58:17;;;;;;;1.60;1.60;;;;;;;;;;1797298;80;26325;-40
2022/03/17 11:00:52;;;;;;;1.62;1.52;;;;;;;;;;1801338;79;26279;-41
2022/03/17 11:03:20;;;;;;;2.90;1.47;;;;;;;;;;1809288;79;26323;-40
2022/03/17 11:05:53;;;;;;;1.37;1.37;;;;;;;;;;1819809;78;26288;-41
2022/03/17 11:08:18;;;;;;;1.60;1.50;;;;;;;;;;1793027;78;26243;-40
2022/03/17 11:10:45;;;;;;;2.15;1.50;;;;;;;;;;1780476;79;26313;-40
2022/03/17 11:13:13;;;;;;;1.80;1.70;;;;;;;;;;1788393;79;26359;-40
2022/03/17 11:15:45;;;;;;;1.60;1.50;;;;;;;;;;1785015;79;27003;-41
2022/03/17 11:18:19;;;;;;;1.35;1.35;;;;;;;;;;1829544;78;26379;-41
2022/03/17 11:20:47;;;;;;;1.45;1.45;;;;;;;;;;1810814;78;26727;-42
2022/03/17 11:23:18;;;;;;;1.55;1.50;;;;;;;;;;1809336;79;26279;-40
2022/03/17 11:25:55;;;;;;;1.57;1.57;;;;;;;;;;1810646;78;26388;-42
2022/03/17 11:28:32;;;;;;;1.90;1.50;;;;;;;;;;1839652;78;26225;-42
2022/03/17 11:31:04;;;;;;;1.55;1.55;;;;;;;;;;1839040;78;26342;-42
2022/03/17 11:33:33;;;;;;;1.60;1.47;;;;;;;;;;1839429;78;26952;-41
2022/03/17 11:36:02;;;;;;;1.70;1.60;;;;;;;;;;1836919;77;26301;-41
2022/03/17 11:38:41;;;;;;;1.67;1.57;;;;;;;;;;1805232;79;26349;-40
2022/03/17 11:41:10;;;;;;;1.50;1.40;;;;;;;;;;1804239;78;26357;-40
2022/03/17 11:43:47;;;;;;;1.85;1.75;;;;;;;;;;1776522;81;26389;-40
2022/03/17 11:46:22;;;;;;;1.60;1.60;;;;;;;;;;1776573;81;26231;-41
2022/03/17 11:48:51;;;;;;;1.37;1.37;;;;;;;;;;1776457;81;27210;-40
2022/03/17 11:51:19;;;;;;;1.60;1.60;;;;;;;;;;1778073;78;26372;-40
2022/03/17 11:53:48;;;;;;;1.60;1.50;;;;;;;;;;1787157;78;26342;-40
2022/03/17 11:56:38;;;;;;;1.40;1.40;;;;;;;;;;1794518;79;26370;-40
2022/03/17 11:59:05;;;;;;;1.45;1.35;;;;;;;;;;1790135;79;26838;-40
2022/03/17 12:01:34;;;;;;;1.32;1.32;;;;;;;;;;1798995;78;26263;-41
2022/03/17 12:04:03;;;;;;;1.40;1.40;;;;;;;;;;1783447;79;26310;-40
2022/03/17 12:06:34;;;;;;;1.50;1.50;;;;;;;;;;1791615;78;26293;-40
2022/03/17 12:09:07;;;;;;;1.47;1.47;;;;;;;;;;1783748;79;26871;-41
2022/03/17 12:11:39;;;;;;;1.92;1.37;;;;;;;;;;1789065;79;26376;-41
2022/03/17 12:14:17;;;;;;;1.50;1.50;;;;;;;;;;1782092;79;26384;-41
2022/03/17 12:16:48;;;;;;;1.70;1.60;;;;;;;;;;1785883;79;26357;-42
2022/03/17 12:19:26;;;;;;;1.50;1.50;;;;;;;;;;1792472;79;25680;-41
2022/03/17 12:22:01;;;;;;;1.72;1.57;;;;;;;;;;1789045;78;26344;-41
2022/03/17 12:24:35;;;;;;;1.40;1.40;;;;;;;;;;1792398;79;26360;-42
2022/03/17 12:27:04;;;;;;;1.57;1.47;;;;;;;;;;1794972;78;26340;-41
2022/03/17 12:29:31;;;;;;;1.60;1.50;;;;;;;;;;1786773;79;26267;-43
2022/03/17 12:32:06;;;;;;;1.60;1.50;;;;;;;;;;1784334;78;26280;-41
2022/03/17 12:34:34;;;;;;;1.70;1.60;;;;;;;;;;1794861;78;26742;-41
2022/03/17 12:37:02;;;;;;;3.60;1.42;;;;;;;;;;1787281;79;27344;-41
2022/03/17 12:39:30;;;;;;;1.45;1.35;;;;;;;;;;1787130;79;26368;-42
2022/03/17 12:41:59;;;;;;;1.70;1.55;;;;;;;;;;1780560;79;26259;-41
2022/03/17 12:44:27;;;;;;;1.82;1.65;;;;;;;;;;1780763;79;26356;-41
2022/03/17 12:46:56;;;;;;;1.60;1.50;;;;;;;;;;1789075;78;26337;-41
2022/03/17 12:49:23;;;;;;;1.50;1.45;;;;;;;;;;1797774;79;26871;-41
2022/03/17 12:51:50;;;;;;;1.57;1.57;;;;;;;;;;1791298;79;26345;-42
2022/03/17 12:54:18;;;;;;;1.70;1.62;;;;;;;;;;1785200;79;26368;-42
2022/03/17 12:56:52;;;;;;;1.77;1.67;;;;;;;;;;1784668;79;26368;-41
2022/03/17 12:59:20;;;;;;;1.80;1.70;;;;;;;;;;1793833;78;26776;-43
2022/03/17 13:01:48;;;;;;;1.77;1.67;;;;;;;;;;1783454;78;26302;-42
2022/03/17 13:04:16;;;;;;;1.67;1.60;;;;;;;;;;1783581;79;26309;-42
2022/03/17 13:06:57;;;;;;;2.05;1.67;;;;;;;;;;1797050;78;26286;-42
2022/03/17 13:09:28;;;;;;;1.70;1.60;;;;;;;;;;1794486;79;26263;-42
2022/03/17 13:14:48;;;;;;;1.80;1.70;;;;;;;;;;1793413;79;26894;-41
2022/03/17 13:17:16;;;;;;;1.47;1.47;;;;;;;;;;1788650;79;26679;-44
2022/03/17 13:19:49;;;;;;;1.90;1.80;;;;;;;;;;1788480;79;26660;-41
2022/03/17 13:22:18;;;;;;;1.70;1.60;;;;;;;;;;1792371;79;26341;-42
2022/03/17 13:24:45;;;;;;;1.80;1.70;;;;;;;;;;1776841;78;26333;-41
2022/03/17 13:27:12;;;;;;;1.67;1.62;;;;;;;;;;1786048;78;26290;-41
2022/03/17 13:29:46;;;;;;;1.90;1.80;;;;;;;;;;1787139;79;26302;-41
2022/03/17 13:32:12;;;;;;;1.82;1.72;;;;;;;;;;1783559;79;26294;-40
2022/03/17 13:34:39;;;;;;;1.80;1.70;;;;;;;;;;1786254;79;26849;-42
2022/03/17 13:37:10;;;;;;;1.65;1.62;;;;;;;;;;1795225;79;26309;-41
2022/03/17 13:39:39;;;;;;;1.65;1.57;;;;;;;;;;1789528;79;26294;-41
2022/03/17 13:42:08;;;;;;;1.62;1.62;;;;;;;;;;1791459;78;26299;-42
2022/03/17 13:44:54;;;;;;;1.87;1.77;;;;;;;;;;1801173;79;26371;-43
2022/03/17 13:47:23;;;;;;;1.90;1.80;;;;;;;;;;1786481;79;26277;-40
2022/03/17 13:50:07;;;;;;;1.95;1.80;;;;;;;;;;1802648;79;26590;-40
2022/03/17 13:52:35;;;;;;;1.75;1.70;;;;;;;;;;1794276;78;26331;-41
2022/03/17 13:55:02;;;;;;;1.60;1.60;;;;;;;;;;1789131;79;26322;-40
2022/03/17 13:57:29;;;;;;;1.80;1.70;;;;;;;;;;1788622;79;26294;-41
2022/03/17 13:59:57;;;;;;;1.80;1.70;;;;;;;;;;1796780;78;26315;-41
2022/03/17 14:02:24;;;;;;;1.90;1.80;;;;;;;;;;1790989;79;26346;-42
2022/03/17 14:04:56;;;;;;;1.70;1.65;;;;;;;;;;1783124;78;26370;-42
2022/03/17 14:07:24;;;;;;;1.95;1.65;;;;;;;;;;1791565;78;26294;-40
2022/03/17 14:09:51;;;;;;;1.65;1.62;;;;;;;;;;1793109;79;26313;-42
2022/03/17 14:12:19;;;;;;;1.90;1.90;;;;;;;;;;1790679;78;26611;-41
2022/03/17 14:14:46;;;;;;;1.70;1.70;;;;;;;;;;1803322;79;26260;-41
2022/03/17 14:17:13;;;;;;;1.60;1.60;;;;;;;;;;1794474;79;26303;-41
2022/03/17 14:19:41;;;;;;;1.92;1.82;;;;;;;;;;1792648;78;26297;-41
2022/03/17 14:24:53;;;;;;;1.70;1.70;;;;;;;;;;1785135;79;26734;-41
2022/03/17 14:27:21;;;;;;;1.70;1.70;;;;;;;;;;1796693;78;26345;-40
2022/03/17 14:29:49;;;;;;;1.80;1.70;;;;;;;;;;1800591;78;25685;-42
2022/03/17 14:32:16;;;;;;;1.90;1.80;;;;;;;;;;1798613;78;25385;-40
2022/03/17 14:34:45;;;;;;;2.10;1.72;;;;;;;;;;1794912;78;26281;-40
2022/03/17 14:37:12;;;;;;;1.60;1.60;;;;;;;;;;1793390;79;26324;-40
2022/03/17 14:39:43;;;;;;;1.95;1.85;;;;;;;;;;1787519;79;26840;-41
2022/03/17 14:42:12;;;;;;;1.87;1.80;;;;;;;;;;1785700;79;26291;-41
2022/03/17 14:44:37;;;;;;;2.20;1.72;;;;;;;;;;1809219;79;26278;-40
2022/03/17 14:47:05;;;;;;;1.80;1.70;;;;;;;;;;1808538;78;26294;-45
2022/03/17 14:49:32;;;;;;;1.82;1.60;;;;;;;;;;1805580;79;26381;-42
2022/03/17 14:51:59;;;;;;;1.52;1.52;;;;;;;;;;1805125;78;26303;-41
2022/03/17 14:54:27;;;;;;;1.70;1.70;;;;;;;;;;1796886;79;26372;-42
2022/03/17 14:56:54;;;;;;;1.90;1.80;;;;;;;;;;1801165;79;26384;-40
2022/03/17 14:59:22;;;;;;;1.80;1.70;;;;;;;;;;1801378;79;26432;-42
2022/03/17 15:01:49;;;;;;;1.60;1.60;;;;;;;;;;1804613;79;25868;-42
2022/03/17 15:04:16;;;;;;;1.40;1.40;;;;;;;;;;1805279;79;26308;-41
2022/03/17 15:06:44;;;;;;;1.90;1.80;;;;;;;;;;1805588;79;26334;-42
2022/03/17 15:09:11;;;;;;;1.92;1.50;;;;;;;;;;1805497;79;26308;-41